Time;durP1;ratioP1;P1;durP2;ratioP2;P2;SDS_P1;SDS_P2;PMS_P1;PMS_P2;Temp;Humidity;BMP_temperature;BMP_pressure;BME280_temperature;BME280_humidity;BME280_pressure;Samples;Min_cycle;Max_cycle;Signal;HPM_P1;HPM_P2
2022/09/09 00:00:35;;;;;;;;;;;14.30;99.90;;;;;;4983300;28;19926;-77
2022/09/09 00:03:18;;;;;;;;;;;14.30;99.90;;;;;;4983826;28;19968;-77
2022/09/09 00:05:48;;;;;;;;;;;14.30;99.90;;;;;;4983681;28;19930;-77
2022/09/09 00:08:18;;;;;;;;;;;14.30;99.90;;;;;;4983780;28;19918;-76
2022/09/09 00:10:43;;;;;;;;;;;14.30;99.90;;;;;;4982320;28;19973;-77
2022/09/09 00:13:15;;;;;;;;;;;14.30;99.90;;;;;;4983682;28;20336;-77
2022/09/09 00:16:02;;;;;;;;;;;14.30;99.90;;;;;;4978109;28;19933;-76
2022/09/09 00:18:30;;;;;;;;;;;14.30;99.90;;;;;;4964561;28;19992;-76
2022/09/09 00:21:02;;;;;;;;;;;14.30;99.90;;;;;;4964368;28;20580;-77
2022/09/09 00:23:29;;;;;;;;;;;14.30;99.90;;;;;;4964709;28;19930;-77
2022/09/09 00:26:14;;;;;;;;;;;14.30;99.90;;;;;;4963674;28;20011;-77
2022/09/09 00:28:45;;;;;;;;;;;14.30;99.90;;;;;;4964075;28;19926;-77
2022/09/09 00:31:18;;;;;;;;;;;14.30;99.90;;;;;;4964387;28;19933;-76
2022/09/09 00:33:43;;;;;;;;;;;14.30;99.90;;;;;;4962599;28;19933;-77
2022/09/09 00:36:15;;;;;;;;;;;14.30;99.90;;;;;;4962865;28;20276;-77
2022/09/09 00:38:55;;;;;;;;;;;14.30;99.90;;;;;;4963120;28;19930;-78
2022/09/09 00:41:45;;;;;;;;;;;14.20;99.90;;;;;;4964159;28;20025;-77
2022/09/09 00:44:31;;;;;;;;;;;14.20;99.90;;;;;;4964086;28;19926;-76
2022/09/09 00:47:03;;;;;;;;;;;14.20;99.90;;;;;;4963024;28;20459;-76
2022/09/09 00:49:41;;;;;;;;;;;14.20;99.90;;;;;;4964110;28;20416;-76
2022/09/09 00:52:22;;;;;;;;;;;14.20;99.90;;;;;;4962870;28;19926;-77
2022/09/09 00:54:54;;;;;;;;;;;14.20;99.90;;;;;;4962703;28;19930;-77
2022/09/09 00:57:23;;;;;;;;;;;14.20;99.90;;;;;;4963704;28;20211;-76
2022/09/09 01:00:07;;;;;;;;;;;14.20;99.90;;;;;;4963311;28;19941;-76
2022/09/09 01:02:43;;;;;;;;;;;14.20;99.90;;;;;;4978554;28;19972;-77
2022/09/09 01:05:15;;;;;;;;;;;14.20;99.90;;;;;;4985251;23;19933;-76
2022/09/09 01:07:45;;;;;;;;;;;14.30;99.90;;;;;;4981665;28;19926;-77
2022/09/09 01:10:20;;;;;;;;;;;14.30;99.90;;;;;;4965057;28;19972;-77
2022/09/09 01:12:47;;;;;;;;;;;14.20;99.90;;;;;;4982887;28;19926;-76
2022/09/09 01:15:16;;;;;;;;;;;14.20;99.90;;;;;;4983329;28;19925;-76
2022/09/09 01:17:49;;;;;;;;;;;14.20;99.90;;;;;;4985433;28;20210;-77
2022/09/09 01:20:17;;;;;;;;;;;14.20;99.90;;;;;;4985560;28;19926;-77
2022/09/09 01:22:50;;;;;;;;;;;14.20;99.90;;;;;;4986452;28;19926;-77
2022/09/09 01:25:27;;;;;;;;;;;14.20;99.90;;;;;;4985690;28;19926;-77
2022/09/09 01:27:58;;;;;;;;;;;14.20;99.90;;;;;;4985304;28;20614;-76
2022/09/09 01:30:24;;;;;;;;;;;14.20;99.90;;;;;;4985186;28;19980;-76
2022/09/09 01:32:53;;;;;;;;;;;14.20;99.90;;;;;;4986362;28;20028;-76
2022/09/09 01:35:18;;;;;;;;;;;14.20;99.90;;;;;;4986630;28;19929;-76
2022/09/09 01:37:44;;;;;;;;;;;14.20;99.90;;;;;;5000900;28;19941;-76
2022/09/09 01:40:09;;;;;;;;;;;14.20;99.90;;;;;;4985531;28;20432;-77
2022/09/09 01:42:35;;;;;;;;;;;14.20;99.90;;;;;;4986292;28;19933;-77
2022/09/09 01:45:00;;;;;;;;;;;14.10;99.90;;;;;;4985200;28;20289;-76
2022/09/09 01:47:26;;;;;;;;;;;14.10;99.90;;;;;;4986409;28;19933;-76
2022/09/09 01:49:51;;;;;;;;;;;14.10;99.90;;;;;;4986056;28;20653;-76
2022/09/09 01:52:17;;;;;;;;;;;14.10;99.90;;;;;;4986250;28;19933;-76
2022/09/09 01:54:42;;;;;;;;;;;14.10;99.90;;;;;;4985132;28;20328;-76
2022/09/09 01:57:26;;;;;;;;;;;14.10;99.90;;;;;;4985741;28;19932;-77
2022/09/09 02:00:01;;;;;;;;;;;14.10;99.90;;;;;;4985705;28;19933;-76
2022/09/09 02:02:30;;;;;;;;;;;14.10;99.90;;;;;;5001486;28;19977;-76
2022/09/09 02:05:01;;;;;;;;;;;14.00;99.90;;;;;;4985945;28;19977;-76
2022/09/09 02:07:40;;;;;;;;;;;14.00;99.90;;;;;;4985047;28;19926;-76
2022/09/09 02:10:19;;;;;;;;;;;14.00;99.90;;;;;;4984068;28;19940;-76
2022/09/09 02:12:46;;;;;;;;;;;13.90;99.90;;;;;;4984111;28;19921;-77
2022/09/09 02:15:22;;;;;;;;;;;14.00;99.90;;;;;;4985608;28;20460;-77
2022/09/09 02:17:50;;;;;;;;;;;14.00;99.90;;;;;;4985213;28;20368;-77
2022/09/09 02:20:16;;;;;;;;;;;14.00;99.90;;;;;;4985770;28;19926;-77
2022/09/09 02:22:43;;;;;;;;;;;13.90;99.90;;;;;;4985480;28;19973;-77
2022/09/09 02:25:11;;;;;;;;;;;13.90;99.90;;;;;;4984515;28;19926;-77
2022/09/09 02:27:37;;;;;;;;;;;13.90;99.90;;;;;;4984332;28;19926;-77
2022/09/09 02:30:04;;;;;;;;;;;13.90;99.90;;;;;;4985666;28;20308;-77
2022/09/09 02:32:32;;;;;;;;;;;14.00;99.90;;;;;;4985270;28;20020;-78
2022/09/09 02:34:59;;;;;;;;;;;13.90;99.90;;;;;;4985456;28;19988;-77
2022/09/09 02:37:28;;;;;;;;;;;14.00;99.90;;;;;;4985658;28;19925;-76
2022/09/09 02:39:54;;;;;;;;;;;14.00;99.90;;;;;;4999179;28;19980;-76
2022/09/09 02:42:19;;;;;;;;;;;14.00;99.90;;;;;;4983830;28;19934;-76
2022/09/09 02:44:45;;;;;;;;;;;14.00;99.90;;;;;;4984752;28;19929;-76
2022/09/09 02:47:12;;;;;;;;;;;14.00;99.90;;;;;;5016752;28;19933;-77
2022/09/09 02:49:56;;;;;;;;;;;14.00;99.90;;;;;;4983884;28;19926;-77
2022/09/09 02:52:27;;;;;;;;;;;14.00;99.90;;;;;;4984919;28;19925;-76
2022/09/09 02:54:57;;;;;;;;;;;14.00;99.90;;;;;;4984283;28;19925;-76
2022/09/09 02:57:25;;;;;;;;;;;14.00;99.90;;;;;;4984745;28;19960;-76
2022/09/09 02:59:51;;;;;;;;;;;14.00;99.90;;;;;;4984675;28;19948;-76
2022/09/09 03:02:18;;;;;;;;;;;14.00;99.90;;;;;;4984610;28;19926;-76
2022/09/09 03:04:44;;;;;;;;;;;14.00;99.90;;;;;;4984229;28;19926;-77
2022/09/09 03:07:10;;;;;;;;;;;14.00;99.90;;;;;;4983634;28;19932;-76
2022/09/09 03:09:35;;;;;;;;;;;14.00;99.90;;;;;;4983687;28;19944;-77
2022/09/09 03:12:01;;;;;;;;;;;14.00;99.90;;;;;;4984888;28;20368;-77
2022/09/09 03:14:27;;;;;;;;;;;14.00;99.90;;;;;;4983861;28;19972;-76
2022/09/09 03:16:53;;;;;;;;;;;14.00;99.90;;;;;;4984098;28;19921;-76
2022/09/09 03:19:18;;;;;;;;;;;14.00;99.90;;;;;;4983152;28;20416;-77
2022/09/09 03:21:47;;;;;;;;;;;14.00;99.90;;;;;;4984089;28;19988;-77
2022/09/09 03:24:13;;;;;;;;;;;14.00;99.90;;;;;;4982188;28;20403;-76
2022/09/09 03:26:40;;;;;;;;;;;14.00;99.90;;;;;;4984323;28;19932;-76
2022/09/09 03:29:06;;;;;;;;;;;14.00;99.90;;;;;;4984439;28;20005;-76
2022/09/09 03:31:32;;;;;;;;;;;14.00;99.90;;;;;;4983669;28;20357;-77
2022/09/09 03:33:58;;;;;;;;;;;14.00;99.90;;;;;;4984824;28;19925;-76
2022/09/09 03:36:24;;;;;;;;;;;14.00;99.90;;;;;;4984232;28;19929;-76
2022/09/09 03:38:50;;;;;;;;;;;14.00;99.90;;;;;;4982653;28;20382;-77
2022/09/09 03:41:16;;;;;;;;;;;14.00;99.90;;;;;;4982873;28;19952;-76
2022/09/09 03:43:41;;;;;;;;;;;14.00;99.90;;;;;;4983634;28;19945;-76
2022/09/09 03:46:07;;;;;;;;;;;14.00;99.90;;;;;;4984077;28;19973;-77
2022/09/09 03:48:32;;;;;;;;;;;14.00;99.90;;;;;;4983807;28;20351;-77
2022/09/09 03:51:00;;;;;;;;;;;14.00;99.90;;;;;;4983600;28;19932;-76
2022/09/09 03:53:25;;;;;;;;;;;13.90;99.90;;;;;;4983833;28;19925;-76
2022/09/09 03:55:54;;;;;;;;;;;13.90;99.90;;;;;;4983885;28;19933;-76
2022/09/09 03:58:20;;;;;;;;;;;13.90;99.90;;;;;;4982264;28;19934;-76
2022/09/09 04:00:59;;;;;;;;;;;13.90;99.90;;;;;;4983578;28;19925;-77
2022/09/09 04:03:25;;;;;;;;;;;13.90;99.90;;;;;;4983175;28;20384;-77
2022/09/09 04:05:51;;;;;;;;;;;13.80;99.90;;;;;;4998712;28;19925;-77
2022/09/09 04:08:18;;;;;;;;;;;13.90;99.90;;;;;;4982895;28;19926;-77
2022/09/09 04:10:47;;;;;;;;;;;13.90;99.90;;;;;;4983367;28;19933;-77
2022/09/09 04:13:15;;;;;;;;;;;13.90;99.90;;;;;;4983714;28;19960;-76
2022/09/09 04:15:42;;;;;;;;;;;13.90;99.90;;;;;;4983585;28;19922;-77
2022/09/09 04:18:07;;;;;;;;;;;13.90;99.90;;;;;;4983480;28;19926;-76
2022/09/09 04:20:33;;;;;;;;;;;13.90;99.90;;;;;;4983533;28;20452;-77
2022/09/09 04:22:58;;;;;;;;;;;13.90;99.90;;;;;;4983153;28;20455;-76
2022/09/09 04:25:24;;;;;;;;;;;13.90;99.90;;;;;;4982760;28;20351;-77
2022/09/09 04:27:54;;;;;;;;;;;13.90;99.90;;;;;;4983447;28;19957;-76
2022/09/09 04:30:20;;;;;;;;;;;14.00;99.90;;;;;;4983839;28;19976;-76
2022/09/09 04:32:46;;;;;;;;;;;14.00;99.90;;;;;;4982109;28;19926;-77
2022/09/09 04:35:11;;;;;;;;;;;14.00;99.90;;;;;;4983823;28;19932;-76
2022/09/09 04:37:37;;;;;;;;;;;14.10;99.90;;;;;;4983018;28;20292;-76
2022/09/09 04:40:02;;;;;;;;;;;14.10;99.90;;;;;;4982483;28;19926;-76
2022/09/09 04:42:28;;;;;;;;;;;14.10;99.90;;;;;;4983109;28;20781;-76
2022/09/09 04:44:54;;;;;;;;;;;14.10;99.90;;;;;;4983178;28;19926;-76
2022/09/09 04:47:19;;;;;;;;;;;14.10;99.90;;;;;;4983699;28;20020;-76
2022/09/09 04:49:45;;;;;;;;;;;14.10;99.90;;;;;;4983250;28;20045;-76
2022/09/09 04:52:11;;;;;;;;;;;14.10;99.90;;;;;;4985696;28;19988;-76
2022/09/09 04:54:36;;;;;;;;;;;14.10;99.90;;;;;;4985059;28;19926;-76
2022/09/09 04:57:02;;;;;;;;;;;14.20;99.90;;;;;;4987181;28;19934;-76
2022/09/09 04:59:27;;;;;;;;;;;14.10;99.90;;;;;;4986979;28;19983;-76
2022/09/09 05:01:56;;;;;;;;;;;14.20;99.90;;;;;;4986491;28;20422;-76
2022/09/09 05:04:22;;;;;;;;;;;14.20;99.90;;;;;;4979924;28;19934;-76
2022/09/09 05:06:48;;;;;;;;;;;14.20;99.90;;;;;;4970548;28;20396;-76
2022/09/09 05:09:13;;;;;;;;;;;14.20;99.90;;;;;;4966332;28;19930;-77
2022/09/09 05:11:39;;;;;;;;;;;14.20;99.90;;;;;;4965593;28;20281;-77
2022/09/09 05:14:04;;;;;;;;;;;14.20;99.90;;;;;;4984660;28;19938;-77
2022/09/09 05:16:30;;;;;;;;;;;14.20;99.90;;;;;;4986531;28;19922;-78
2022/09/09 05:18:56;;;;;;;;;;;14.20;99.90;;;;;;4986785;28;20299;-77
2022/09/09 05:21:24;;;;;;;;;;;14.20;99.90;;;;;;4984880;28;20017;-79
2022/09/09 05:23:51;;;;;;;;;;;14.20;99.90;;;;;;4978109;28;20307;-76
2022/09/09 05:26:17;;;;;;;;;;;14.20;99.90;;;;;;4975446;28;19926;-76
2022/09/09 05:28:43;;;;;;;;;;;14.30;99.90;;;;;;4982291;28;19922;-76
2022/09/09 05:31:11;;;;;;;;;;;14.30;99.90;;;;;;4975663;28;19930;-76
2022/09/09 05:33:36;;;;;;;;;;;14.30;99.90;;;;;;4974342;28;19972;-76
2022/09/09 05:36:07;;;;;;;;;;;14.30;99.90;;;;;;4978819;28;19965;-76
2022/09/09 05:38:33;;;;;;;;;;;14.30;99.90;;;;;;4979588;28;19925;-77
2022/09/09 05:40:59;;;;;;;;;;;14.30;99.90;;;;;;4978159;28;19926;-76
2022/09/09 05:43:25;;;;;;;;;;;14.30;99.90;;;;;;4976786;28;19932;-76
2022/09/09 05:46:02;;;;;;;;;;;14.40;99.90;;;;;;4974197;28;21456;-76
2022/09/09 05:48:28;;;;;;;;;;;14.30;99.90;;;;;;4978676;28;20683;-77
2022/09/09 05:50:54;;;;;;;;;;;14.30;99.90;;;;;;4980016;28;19933;-77
2022/09/09 05:53:20;;;;;;;;;;;14.30;99.90;;;;;;4982405;28;20368;-79
2022/09/09 05:55:45;;;;;;;;;;;14.40;99.90;;;;;;4981988;28;19933;-81
2022/09/09 05:58:11;;;;;;;;;;;14.30;99.90;;;;;;4984529;28;19933;-82
2022/09/09 06:00:37;;;;;;;;;;;14.40;99.90;;;;;;4984979;28;19968;-82
2022/09/09 06:03:03;;;;;;;;;;;14.30;99.90;;;;;;4983590;28;20341;-82
2022/09/09 06:05:29;;;;;;;;;;;14.40;99.90;;;;;;4984876;28;19952;-81
2022/09/09 06:07:55;;;;;;;;;;;14.40;99.90;;;;;;4983859;28;19926;-82
2022/09/09 06:10:21;;;;;;;;;;;14.40;99.90;;;;;;4978599;28;20466;-81
2022/09/09 06:12:47;;;;;;;;;;;14.40;99.90;;;;;;4983972;28;19926;-81
2022/09/09 06:15:12;;;;;;;;;;;14.40;99.90;;;;;;4980773;28;19987;-77
2022/09/09 06:17:38;;;;;;;;;;;14.40;99.90;;;;;;4982304;28;19922;-80
2022/09/09 06:20:04;;;;;;;;;;;14.50;99.90;;;;;;4983792;28;19949;-80
2022/09/09 06:22:30;;;;;;;;;;;14.50;99.90;;;;;;4982990;28;19937;-85
2022/09/09 06:25:00;;;;;;;;;;;14.50;99.90;;;;;;4974388;28;19964;-86
2022/09/09 06:27:27;;;;;;;;;;;14.60;99.90;;;;;;4979664;28;20373;-82
2022/09/09 06:29:52;;;;;;;;;;;14.60;99.90;;;;;;4983838;28;19925;-83
2022/09/09 06:32:18;;;;;;;;;;;14.60;99.90;;;;;;4984322;28;20384;-82
2022/09/09 06:34:45;;;;;;;;;;;14.60;99.90;;;;;;4983513;28;20318;-83
2022/09/09 06:37:11;;;;;;;;;;;14.70;99.90;;;;;;4983255;28;20490;-80
2022/09/09 06:39:36;;;;;;;;;;;14.70;99.90;;;;;;4981473;28;19926;-79
2022/09/09 06:42:02;;;;;;;;;;;14.70;99.90;;;;;;4982439;28;20028;-80
2022/09/09 06:44:27;;;;;;;;;;;14.70;99.90;;;;;;4984367;28;19926;-79
2022/09/09 06:46:53;;;;;;;;;;;14.70;99.90;;;;;;4983057;28;19933;-80
2022/09/09 06:49:19;;;;;;;;;;;14.70;99.90;;;;;;4984116;28;20383;-80
2022/09/09 06:51:44;;;;;;;;;;;14.70;99.90;;;;;;4983799;28;19930;-81
2022/09/09 06:54:11;;;;;;;;;;;14.70;99.90;;;;;;4982539;28;19977;-80
2022/09/09 06:56:39;;;;;;;;;;;14.80;99.90;;;;;;4982922;28;19933;-81
2022/09/09 06:59:05;;;;;;;;;;;14.80;99.90;;;;;;4983304;28;20354;-81
2022/09/09 07:01:33;;;;;;;;;;;14.80;99.90;;;;;;4983695;28;19925;-81
2022/09/09 07:03:59;;;;;;;;;;;14.80;99.90;;;;;;4970452;28;19933;-79
2022/09/09 07:06:26;;;;;;;;;;;14.80;99.90;;;;;;4984734;28;20020;-79
2022/09/09 07:08:53;;;;;;;;;;;14.80;99.90;;;;;;4981468;28;19929;-80
2022/09/09 07:11:19;;;;;;;;;;;14.80;99.90;;;;;;4982840;28;19994;-80
2022/09/09 07:13:45;;;;;;;;;;;14.80;99.90;;;;;;4971627;28;20381;-80
2022/09/09 07:16:12;;;;;;;;;;;14.80;99.90;;;;;;4974011;28;19988;-80
2022/09/09 07:18:39;;;;;;;;;;;14.80;99.90;;;;;;4973376;28;19933;-81
2022/09/09 07:21:04;;;;;;;;;;;14.80;99.90;;;;;;4972961;28;20036;-80
2022/09/09 07:23:30;;;;;;;;;;;14.90;99.90;;;;;;4963614;28;20012;-81
2022/09/09 07:25:56;;;;;;;;;;;14.90;99.90;;;;;;4982425;28;19948;-80
2022/09/09 07:28:22;;;;;;;;;;;14.90;99.90;;;;;;4982359;28;19925;-78
2022/09/09 07:30:55;;;;;;;;;;;14.90;99.90;;;;;;4980795;28;19921;-79
2022/09/09 07:33:21;;;;;;;;;;;14.90;99.90;;;;;;4982470;28;19925;-80
2022/09/09 07:35:46;;;;;;;;;;;15.00;99.90;;;;;;4968093;28;19993;-80
2022/09/09 07:38:12;;;;;;;;;;;15.00;99.90;;;;;;4962212;28;19957;-80
2022/09/09 07:40:37;;;;;;;;;;;14.90;99.90;;;;;;4978395;28;19995;-77
2022/09/09 07:43:03;;;;;;;;;;;15.00;99.90;;;;;;4977067;28;19977;-77
2022/09/09 07:45:28;;;;;;;;;;;15.10;99.90;;;;;;4978726;28;19960;-77
2022/09/09 07:47:56;;;;;;;;;;;15.10;99.90;;;;;;4983174;28;19926;-77
2022/09/09 07:50:22;;;;;;;;;;;15.10;99.90;;;;;;4983289;28;20012;-76
2022/09/09 07:52:48;;;;;;;;;;;15.20;99.90;;;;;;4982179;28;20008;-77
2022/09/09 07:55:14;;;;;;;;;;;15.20;99.90;;;;;;4982630;28;20346;-76
2022/09/09 07:57:40;;;;;;;;;;;15.20;99.90;;;;;;4978006;28;19926;-78
2022/09/09 08:00:06;;;;;;;;;;;15.20;99.90;;;;;;4982449;28;19926;-78
2022/09/09 08:02:31;;;;;;;;;;;15.20;99.90;;;;;;4979423;28;19925;-77
2022/09/09 08:04:57;;;;;;;;;;;15.30;99.90;;;;;;4981669;28;19925;-77
2022/09/09 08:07:23;;;;;;;;;;;15.30;99.90;;;;;;4982264;28;20357;-78
2022/09/09 08:09:49;;;;;;;;;;;15.40;99.90;;;;;;4982266;28;20164;-78
2022/09/09 08:12:14;;;;;;;;;;;15.40;99.90;;;;;;4982778;28;19925;-78
2022/09/09 08:14:40;;;;;;;;;;;15.50;99.90;;;;;;4982506;28;20539;-80
2022/09/09 08:17:05;;;;;;;;;;;15.50;99.90;;;;;;4981800;28;19972;-78
2022/09/09 08:19:33;;;;;;;;;;;15.60;99.90;;;;;;4982269;28;19949;-80
2022/09/09 08:22:01;;;;;;;;;;;15.60;99.90;;;;;;4983149;28;20240;-81
2022/09/09 08:24:27;;;;;;;;;;;15.70;99.90;;;;;;4981734;28;19922;-79
2022/09/09 08:26:53;;;;;;;;;;;15.80;99.90;;;;;;4983621;28;19933;-78
2022/09/09 08:29:21;;;;;;;;;;;15.90;99.90;;;;;;4986954;28;19926;-77
2022/09/09 08:31:48;;;;;;;;;;;15.90;99.90;;;;;;4986369;28;19928;-77
2022/09/09 08:34:14;;;;;;;;;;;15.90;99.90;;;;;;4986547;28;20296;-76
2022/09/09 08:36:44;;;;;;;;;;;16.10;99.90;;;;;;4985063;28;20230;-76
2022/09/09 08:39:11;;;;;;;;;;;16.20;99.90;;;;;;4985190;28;20007;-76
2022/09/09 08:41:48;;;;;;;;;;;16.30;99.90;;;;;;4985081;28;19925;-76
2022/09/09 08:44:28;;;;;;;;;;;16.30;99.90;;;;;;4985465;28;19928;-76
2022/09/09 08:47:12;;;;;;;;;;;16.30;99.90;;;;;;4984491;28;20047;-75
2022/09/09 08:49:49;;;;;;;;;;;16.40;99.90;;;;;;4985683;28;19944;-78
2022/09/09 08:52:20;;;;;;;;;;;16.50;99.90;;;;;;4968324;28;19976;-78
2022/09/09 08:54:46;;;;;;;;;;;16.60;99.90;;;;;;4984130;28;20342;-78
2022/09/09 08:57:14;;;;;;;;;;;16.60;99.90;;;;;;4986029;28;20157;-78
2022/09/09 08:59:40;;;;;;;;;;;16.70;99.90;;;;;;5000018;28;19933;-78
2022/09/09 09:02:18;;;;;;;;;;;16.70;99.90;;;;;;4985343;28;19926;-77
2022/09/09 09:04:46;;;;;;;;;;;16.70;99.90;;;;;;4984966;28;20424;-77
2022/09/09 09:07:15;;;;;;;;;;;16.70;99.90;;;;;;4985280;28;19933;-77
2022/09/09 09:09:40;;;;;;;;;;;16.70;99.90;;;;;;4985086;28;19926;-77
2022/09/09 09:12:17;;;;;;;;;;;16.70;99.90;;;;;;4985441;28;19932;-77
2022/09/09 09:14:45;;;;;;;;;;;16.70;99.90;;;;;;4984543;28;19992;-77
2022/09/09 09:17:16;;;;;;;;;;;16.70;99.90;;;;;;4984773;28;19926;-77
2022/09/09 09:19:43;;;;;;;;;;;16.70;99.90;;;;;;4983854;28;20010;-76
2022/09/09 09:22:29;;;;;;;;;;;16.80;99.90;;;;;;4986976;28;19929;-77
2022/09/09 09:24:55;;;;;;;;;;;16.80;99.90;;;;;;4983579;28;20291;-77
2022/09/09 09:27:40;;;;;;;;;;;16.80;99.90;;;;;;4986666;28;19934;-76
2022/09/09 09:30:13;;;;;;;;;;;16.80;99.90;;;;;;4989615;28;19929;-77
2022/09/09 09:32:40;;;;;;;;;;;16.80;99.90;;;;;;4981404;28;19922;-78
2022/09/09 09:35:12;;;;;;;;;;;16.80;99.90;;;;;;4974661;28;19926;-77
2022/09/09 09:37:39;;;;;;;;;;;16.80;99.90;;;;;;4973430;28;19926;-77
2022/09/09 09:40:12;;;;;;;;;;;16.80;99.90;;;;;;4974045;28;19933;-76
2022/09/09 09:42:46;;;;;;;;;;;16.80;99.90;;;;;;4980536;28;19961;-77
2022/09/09 09:45:28;;;;;;;;;;;16.80;99.90;;;;;;4985829;28;19928;-77
2022/09/09 09:47:59;;;;;;;;;;;16.80;99.90;;;;;;4985317;28;19933;-79
2022/09/09 09:50:25;;;;;;;;;;;16.80;99.90;;;;;;4985855;28;19934;-76
2022/09/09 09:52:55;;;;;;;;;;;16.90;99.90;;;;;;4983812;28;20341;-78
2022/09/09 09:55:21;;;;;;;;;;;16.90;99.90;;;;;;4985494;28;19926;-77
2022/09/09 09:57:46;;;;;;;;;;;17.00;99.90;;;;;;4985211;28;20300;-77
2022/09/09 10:00:14;;;;;;;;;;;17.00;99.90;;;;;;5000324;28;19952;-77
2022/09/09 10:02:43;;;;;;;;;;;17.10;99.90;;;;;;4985141;28;19937;-76
2022/09/09 10:05:19;;;;;;;;;;;17.10;99.90;;;;;;4985136;28;20254;-77
2022/09/09 10:07:45;;;;;;;;;;;17.20;99.90;;;;;;4983762;28;19926;-77
2022/09/09 10:10:14;;;;;;;;;;;17.20;99.90;;;;;;4984868;28;19922;-76
2022/09/09 10:12:57;;;;;;;;;;;17.30;99.90;;;;;;4985270;28;19929;-76
2022/09/09 10:15:23;;;;;;;;;;;17.30;99.90;;;;;;4984148;28;20021;-76
2022/09/09 10:17:54;;;;;;;;;;;17.40;99.90;;;;;;4990804;28;20659;-76
2022/09/09 10:20:32;;;;;;;;;;;17.40;99.90;;;;;;4989052;28;20377;-77
2022/09/09 10:23:08;;;;;;;;;;;17.50;99.90;;;;;;4988146;28;19926;-77
2022/09/09 10:25:36;;;;;;;;;;;17.50;99.90;;;;;;4998248;28;19984;-79
2022/09/09 10:28:22;;;;;;;;;;;17.50;99.90;;;;;;4984000;28;20304;-79
2022/09/09 10:30:57;;;;;;;;;;;17.60;99.90;;;;;;4982941;28;19980;-79
2022/09/09 10:33:43;;;;;;;;;;;17.70;99.90;;;;;;4983328;28;20777;-79
2022/09/09 10:36:23;;;;;;;;;;;17.70;99.90;;;;;;4978047;28;19930;-79
2022/09/09 10:39:06;;;;;;;;;;;17.80;99.90;;;;;;4963203;28;20017;-74
2022/09/09 10:41:42;;;;;;;;;;;17.80;99.90;;;;;;4982754;28;19925;-75
2022/09/09 10:44:14;;;;;;;;;;;17.80;99.90;;;;;;4984131;28;20372;-75
2022/09/09 10:46:52;;;;;;;;;;;17.90;99.90;;;;;;4983876;28;19926;-75
2022/09/09 10:49:37;;;;;;;;;;;18.00;99.90;;;;;;4982913;28;20477;-75
2022/09/09 10:52:21;;;;;;;;;;;18.00;99.90;;;;;;4981877;28;20419;-76
2022/09/09 10:55:00;;;;;;;;;;;18.10;99.90;;;;;;4983577;28;19926;-75
2022/09/09 10:57:36;;;;;;;;;;;18.00;99.90;;;;;;4983519;28;19930;-75
2022/09/09 11:00:15;;;;;;;;;;;18.00;99.90;;;;;;4982794;28;19926;-75
2022/09/09 11:02:41;;;;;;;;;;;18.00;99.90;;;;;;4983875;28;19972;-75
2022/09/09 11:05:16;;;;;;;;;;;18.10;99.90;;;;;;4983394;28;19926;-75
2022/09/09 11:07:59;;;;;;;;;;;18.20;99.90;;;;;;4982505;28;19925;-75
2022/09/09 11:10:34;;;;;;;;;;;18.30;99.90;;;;;;4982314;28;19928;-75
2022/09/09 11:13:03;;;;;;;;;;;18.40;99.90;;;;;;4982710;28;19926;-77
2022/09/09 11:15:34;;;;;;;;;;;18.50;99.90;;;;;;4981252;28;19993;-75
2022/09/09 11:18:02;;;;;;;;;;;18.40;99.90;;;;;;4984583;28;20376;-75
2022/09/09 11:20:28;;;;;;;;;;;18.40;99.90;;;;;;4992305;28;19992;-75
2022/09/09 11:23:01;;;;;;;;;;;18.40;99.90;;;;;;4985047;28;20381;-75
2022/09/09 11:25:30;;;;;;;;;;;18.40;99.90;;;;;;4990124;28;19976;-76
2022/09/09 11:28:02;;;;;;;;;;;18.50;99.90;;;;;;4991330;28;19961;-75
2022/09/09 11:30:43;;;;;;;;;;;18.60;99.90;;;;;;5006181;28;20020;-76
2022/09/09 11:33:21;;;;;;;;;;;18.60;99.90;;;;;;4979535;28;19970;-75
2022/09/09 11:36:02;;;;;;;;;;;18.60;99.90;;;;;;4979997;28;19930;-75
2022/09/09 11:38:29;;;;;;;;;;;18.60;99.90;;;;;;4985422;28;19968;-76
2022/09/09 11:40:57;;;;;;;;;;;18.60;99.90;;;;;;4987922;28;20020;-76
2022/09/09 11:43:26;;;;;;;;;;;18.60;99.90;;;;;;4983286;28;19972;-75
2022/09/09 11:45:58;;;;;;;;;;;18.60;99.90;;;;;;4994190;28;19926;-76
2022/09/09 11:48:27;;;;;;;;;;;18.70;99.90;;;;;;4977772;28;20020;-75
2022/09/09 11:51:00;;;;;;;;;;;18.70;99.90;;;;;;4987125;28;19929;-75
2022/09/09 11:53:26;;;;;;;;;;;18.70;99.90;;;;;;4990514;28;20559;-75
2022/09/09 11:56:01;;;;;;;;;;;18.80;99.90;;;;;;4991722;28;19933;-75
2022/09/09 11:58:35;;;;;;;;;;;18.80;99.90;;;;;;4980220;28;19926;-81
2022/09/09 12:01:00;;;;;;;;;;;18.80;99.90;;;;;;4992704;28;19926;-83
2022/09/09 12:03:34;;;;;;;;;;;18.90;99.90;;;;;;4978594;28;20347;-80
2022/09/09 12:06:09;;;;;;;;;;;18.90;99.90;;;;;;4983232;28;20316;-77
2022/09/09 12:08:36;;;;;;;;;;;18.90;99.90;;;;;;4974317;28;20016;-78
2022/09/09 12:11:04;;;;;;;;;;;18.80;99.90;;;;;;4981914;28;19968;-80
2022/09/09 12:13:31;;;;;;;;;;;18.80;99.90;;;;;;4973585;28;19926;-81
2022/09/09 12:15:58;;;;;;;;;;;18.80;99.90;;;;;;4963361;28;19933;-82
2022/09/09 12:18:25;;;;;;;;;;;18.70;99.90;;;;;;4979213;28;19926;-82
2022/09/09 12:21:02;;;;;;;;;;;18.60;99.90;;;;;;4997920;28;20036;-80
2022/09/09 12:23:36;;;;;;;;;;;18.60;99.90;;;;;;4981100;28;19932;-80
2022/09/09 12:26:01;;;;;;;;;;;18.50;99.90;;;;;;4981079;28;19960;-79
2022/09/09 12:28:46;;;;;;;;;;;18.40;99.90;;;;;;4976096;28;19954;-80
2022/09/09 12:31:17;;;;;;;;;;;18.50;99.90;;;;;;4982315;28;20008;-79
2022/09/09 12:33:45;;;;;;;;;;;18.50;99.90;;;;;;4975627;28;20425;-81
2022/09/09 12:36:12;;;;;;;;;;;18.60;99.90;;;;;;4970962;28;19995;-81
2022/09/09 12:38:41;;;;;;;;;;;18.60;99.90;;;;;;4968014;28;20499;-82
2022/09/09 12:41:19;;;;;;;;;;;18.60;99.90;;;;;;4963469;28;19926;-83
2022/09/09 12:43:45;;;;;;;;;;;18.70;99.90;;;;;;4977411;28;19929;-78
2022/09/09 12:46:17;;;;;;;;;;;18.70;99.90;;;;;;4977677;28;20010;-81
2022/09/09 12:48:45;;;;;;;;;;;18.70;99.90;;;;;;4981441;28;19976;-77
2022/09/09 12:51:18;;;;;;;;;;;18.70;99.90;;;;;;4982183;28;20025;-77
2022/09/09 12:53:45;;;;;;;;;;;18.80;99.90;;;;;;4981417;28;19929;-77
2022/09/09 12:56:18;;;;;;;;;;;18.80;99.90;;;;;;4978950;28;19981;-78
2022/09/09 12:58:46;;;;;;;;;;;18.90;99.90;;;;;;4969096;28;19930;-77
2022/09/09 13:01:20;;;;;;;;;;;19.00;99.90;;;;;;4977317;28;19925;-81
2022/09/09 13:03:47;;;;;;;;;;;19.00;99.90;;;;;;4982022;28;19926;-79
2022/09/09 13:06:18;;;;;;;;;;;19.00;99.90;;;;;;4982917;28;19926;-83
2022/09/09 13:08:43;;;;;;;;;;;19.00;99.90;;;;;;4979313;28;19930;-82
2022/09/09 13:11:12;;;;;;;;;;;19.00;99.90;;;;;;4978652;28;19934;-79
2022/09/09 13:13:39;;;;;;;;;;;19.00;99.90;;;;;;4983789;28;19934;-80
2022/09/09 13:16:06;;;;;;;;;;;19.00;99.90;;;;;;4981716;28;19925;-77
2022/09/09 13:18:34;;;;;;;;;;;19.00;99.90;;;;;;4985752;28;19926;-77
2022/09/09 13:20:59;;;;;;;;;;;18.90;99.90;;;;;;4985962;28;19925;-77
2022/09/09 13:23:27;;;;;;;;;;;18.90;99.90;;;;;;4984995;28;20411;-77
2022/09/09 13:25:53;;;;;;;;;;;18.90;99.90;;;;;;4984603;28;20479;-77
2022/09/09 13:28:23;;;;;;;;;;;18.90;99.90;;;;;;4984803;28;19940;-77
2022/09/09 13:30:59;;;;;;;;;;;19.00;99.90;;;;;;4983646;28;19980;-77
2022/09/09 13:33:29;;;;;;;;;;;19.10;99.90;;;;;;4985604;28;20009;-80
2022/09/09 13:35:56;;;;;;;;;;;19.10;99.90;;;;;;4979777;28;19933;-77
2022/09/09 13:38:22;;;;;;;;;;;19.10;99.90;;;;;;4984452;28;19926;-77
2022/09/09 13:40:59;;;;;;;;;;;19.00;99.90;;;;;;4984852;28;19926;-77
2022/09/09 13:43:25;;;;;;;;;;;18.90;99.90;;;;;;4983840;28;19965;-76
2022/09/09 13:45:56;;;;;;;;;;;18.80;99.90;;;;;;4984902;28;19925;-76
2022/09/09 13:48:22;;;;;;;;;;;18.70;99.90;;;;;;4984856;28;19932;-76
2022/09/09 13:50:54;;;;;;;;;;;18.70;99.90;;;;;;4985036;28;19925;-76
2022/09/09 13:53:20;;;;;;;;;;;18.50;99.90;;;;;;4983836;28;20028;-76
2022/09/09 13:55:45;;;;;;;;;;;18.50;99.90;;;;;;4984660;28;20021;-76
2022/09/09 13:58:15;;;;;;;;;;;18.50;99.90;;;;;;4985723;28;19926;-76
2022/09/09 14:00:40;;;;;;;;;;;18.50;99.90;;;;;;4985209;28;20382;-76
2022/09/09 14:03:07;;;;;;;;;;;18.60;99.90;;;;;;4983753;28;19926;-78
2022/09/09 14:05:33;;;;;;;;;;;18.60;99.90;;;;;;4983891;28;20040;-75
2022/09/09 14:08:00;;;;;;;;;;;18.70;99.90;;;;;;4983809;28;19926;-75
2022/09/09 14:10:25;;;;;;;;;;;18.80;99.90;;;;;;4983572;28;19926;-75
2022/09/09 14:12:51;;;;;;;;;;;18.80;99.90;;;;;;4983151;28;20333;-74
2022/09/09 14:15:16;;;;;;;;;;;18.80;99.90;;;;;;4984027;28;19932;-74
2022/09/09 14:17:42;;;;;;;;;;;19.00;99.90;;;;;;4982688;28;19926;-76
2022/09/09 14:20:09;;;;;;;;;;;19.00;99.90;;;;;;4985016;28;19932;-75
2022/09/09 14:22:35;;;;;;;;;;;19.10;99.90;;;;;;4983513;28;19932;-75
2022/09/09 14:25:00;;;;;;;;;;;19.10;99.90;;;;;;4983038;28;19926;-75
2022/09/09 14:27:26;;;;;;;;;;;19.10;99.90;;;;;;4984845;28;19926;-75